This is the latest recevied weather packets stored in our database for station/object N5GAH-13. If no packets are shown the sender has not sent any weather packets the latest 10 day(s).
| Time | Temp. | Humidity | Pressure | Rain* | Wind** | Luminosity | Snow |
|---|---|---|---|---|---|---|---|
| 1777006410 | 23.89° C | 13% | 1012.3 hPa | 0 mm | - | - | - |
| 1777004610 | 23.89° C | 13% | 1012.3 hPa | 0 mm | - | - | - |
| 1777002811 | 23.89° C | 14% | 1012.1 hPa | 0 mm | - | - | - |
| 1777001010 | 25° C | 14% | 1012 hPa | 0 mm | - | - | - |
| 1776999210 | 26.11° C | 13% | 1011.5 hPa | 0 mm | - | - | - |
| 1776997410 | 26.67° C | 13% | 1010.9 hPa | 0 mm | - | - | - |
| 1776995611 | 27.22° C | 12% | 1010.5 hPa | 0 mm | - | - | - |
| 1776993810 | 28.33° C | 11% | 1010.3 hPa | 0 mm | - | - | - |
| 1776992010 | 29.44° C | 9% | 1009.6 hPa | 0 mm | - | - | - |
| 1776990210 | 30° C | 10% | 1009.3 hPa | 0 mm | - | - | - |
| 1776988410 | 30.56° C | 9% | 1009.3 hPa | 0 mm | - | - | - |
| 1776986610 | 31.67° C | 9% | 1009.2 hPa | 0 mm | - | - | - |
| 1776983010 | 32.22° C | 8% | 1009.1 hPa | 0 mm | - | - | - |
| 1776981210 | 32.78° C | 9% | 1009 hPa | 0 mm | - | - | - |
| 1776979410 | 32.78° C | 9% | 1009.5 hPa | 0 mm | - | - | - |
| 1776977610 | 32.78° C | 10% | 1010.3 hPa | 0 mm | - | - | - |
| 1776975810 | 32.78° C | 10% | 1011.1 hPa | 0 mm | - | - | - |
| 1776974010 | 32.22° C | 11% | 1011.3 hPa | 0 mm | - | - | - |
| 1776972210 | 32.22° C | 11% | 1011.9 hPa | 0 mm | - | - | - |
| 1776970410 | 32.22° C | 11% | 1012.4 hPa | 0 mm | - | - | - |
| 1776966810 | 31.67° C | 12% | 1013.4 hPa | 0 mm | - | - | - |
* Rain latest hour (hover to see other rain measurements)
** Current wind speed in m/s (hover to see current wind gust speed)